sensor_id;sensor_type;location;lat;lon;timestamp;pressure;altitude;pressure_sealevel;temperature;humidity
77452;BME280;66537;52.370;4.832;2023-09-30T00:00:56;102527.53;;;13.42;100.00
77452;BME280;66537;52.370;4.832;2023-09-30T00:03:22;102520.63;;;13.38;100.00
77452;BME280;66537;52.370;4.832;2023-09-30T00:05:47;102520.50;;;13.48;100.00
77452;BME280;66537;52.370;4.832;2023-09-30T00:08:12;102525.69;;;13.50;100.00
77452;BME280;66537;52.370;4.832;2023-09-30T00:10:38;102532.66;;;13.48;100.00
77452;BME280;66537;52.370;4.832;2023-09-30T00:13:03;102533.53;;;13.45;100.00
77452;BME280;66537;52.370;4.832;2023-09-30T00:15:29;102528.38;;;13.42;100.00
77452;BME280;66537;52.370;4.832;2023-09-30T00:17:54;102542.22;;;13.44;100.00
77452;BME280;66537;52.370;4.832;2023-09-30T00:20:19;102540.56;;;13.39;100.00
77452;BME280;66537;52.370;4.832;2023-09-30T00:22:45;102542.34;;;13.37;100.00
77452;BME280;66537;52.370;4.832;2023-09-30T00:25:11;102542.34;;;13.34;100.00
77452;BME280;66537;52.370;4.832;2023-09-30T00:27:36;102545.88;;;13.31;100.00
77452;BME280;66537;52.370;4.832;2023-09-30T00:30:02;102551.28;;;13.13;100.00
77452;BME280;66537;52.370;4.832;2023-09-30T00:32:28;102549.53;;;13.15;100.00
77452;BME280;66537;52.370;4.832;2023-09-30T00:34:54;102561.63;;;13.16;100.00
77452;BME280;66537;52.370;4.832;2023-09-30T00:37:20;102562.47;;;13.18;100.00
77452;BME280;66537;52.370;4.832;2023-09-30T00:39:46;102569.53;;;13.09;100.00
77452;BME280;66537;52.370;4.832;2023-09-30T00:42:11;102575.53;;;13.15;100.00
77452;BME280;66537;52.370;4.832;2023-09-30T00:44:36;102566.94;;;13.09;100.00
77452;BME280;66537;52.370;4.832;2023-09-30T00:47:02;102572.13;;;13.09;100.00
77452;BME280;66537;52.370;4.832;2023-09-30T00:49:28;102579.97;;;13.01;100.00
77452;BME280;66537;52.370;4.832;2023-09-30T00:51:54;102581.72;;;13.04;100.00
77452;BME280;66537;52.370;4.832;2023-09-30T00:54:21;102585.16;;;13.03;100.00
77452;BME280;66537;52.370;4.832;2023-09-30T00:56:50;102586.06;;;13.03;100.00
77452;BME280;66537;52.370;4.832;2023-09-30T00:59:18;102582.56;;;13.06;100.00
77452;BME280;66537;52.370;4.832;2023-09-30T01:01:45;102587.72;;;13.10;100.00
77452;BME280;66537;52.370;4.832;2023-09-30T01:04:12;102586.06;;;13.03;100.00
77452;BME280;66537;52.370;4.832;2023-09-30T01:06:38;102583.53;;;12.94;100.00
77452;BME280;66537;52.370;4.832;2023-09-30T01:09:04;102589.59;;;12.95;100.00
77452;BME280;66537;52.370;4.832;2023-09-30T01:11:30;102598.31;;;12.88;100.00
77452;BME280;66537;52.370;4.832;2023-09-30T01:13:58;102600.13;;;12.81;100.00
77452;BME280;66537;52.370;4.832;2023-09-30T01:16:23;102596.69;;;12.76;100.00
77452;BME280;66537;52.370;4.832;2023-09-30T01:18:49;102602.84;;;12.69;100.00
77452;BME280;66537;52.370;4.832;2023-09-30T01:21:14;102602.84;;;12.69;100.00
77452;BME280;66537;52.370;4.832;2023-09-30T01:23:42;102599.34;;;12.70;100.00
77452;BME280;66537;52.370;4.832;2023-09-30T01:26:10;102598.44;;;12.74;100.00
77452;BME280;66537;52.370;4.832;2023-09-30T01:28:37;102586.34;;;12.73;100.00
77452;BME280;66537;52.370;4.832;2023-09-30T01:31:02;102582.97;;;12.65;100.00
77452;BME280;66537;52.370;4.832;2023-09-30T01:33:28;102579.47;;;12.67;100.00
77452;BME280;66537;52.370;4.832;2023-09-30T01:35:54;102583.78;;;12.68;100.00
77452;BME280;66537;52.370;4.832;2023-09-30T01:38:19;102587.28;;;12.64;100.00
77452;BME280;66537;52.370;4.832;2023-09-30T01:40:45;102581.31;;;12.55;100.00
77452;BME280;66537;52.370;4.832;2023-09-30T01:43:15;102583.94;;;12.50;100.00
77452;BME280;66537;52.370;4.832;2023-09-30T01:45:41;102577.84;;;12.54;100.00
77452;BME280;66537;52.370;4.832;2023-09-30T01:48:06;102567.41;;;12.62;100.00
77452;BME280;66537;52.370;4.832;2023-09-30T01:50:32;102567.44;;;12.59;100.00
77452;BME280;66537;52.370;4.832;2023-09-30T01:52:58;102577.78;;;12.65;100.00
77452;BME280;66537;52.370;4.832;2023-09-30T01:55:23;102576.94;;;12.58;100.00
77452;BME280;66537;52.370;4.832;2023-09-30T01:57:48;102585.63;;;12.59;100.00
77452;BME280;66537;52.370;4.832;2023-09-30T02:00:14;102583.06;;;12.56;100.00
77452;BME280;66537;52.370;4.832;2023-09-30T02:02:39;102585.59;;;12.60;100.00
77452;BME280;66537;52.370;4.832;2023-09-30T02:05:05;102575.19;;;12.62;100.00
77452;BME280;66537;52.370;4.832;2023-09-30T02:07:33;102574.34;;;12.58;100.00
77452;BME280;66537;52.370;4.832;2023-09-30T02:09:59;102580.38;;;12.62;100.00
77452;BME280;66537;52.370;4.832;2023-09-30T02:12:26;102573.53;;;12.55;100.00
77452;BME280;66537;52.370;4.832;2023-09-30T02:14:51;102565.75;;;12.53;100.00
77452;BME280;66537;52.370;4.832;2023-09-30T02:17:17;102568.34;;;12.53;100.00
77452;BME280;66537;52.370;4.832;2023-09-30T02:19:42;102572.59;;;12.60;100.00
77452;BME280;66537;52.370;4.832;2023-09-30T02:22:08;102578.75;;;12.53;100.00
77452;BME280;66537;52.370;4.832;2023-09-30T02:24:34;102576.91;;;12.63;100.00
77452;BME280;66537;52.370;4.832;2023-09-30T02:26:59;102571.75;;;12.58;100.00
77452;BME280;66537;52.370;4.832;2023-09-30T02:29:25;102564.75;;;12.69;100.00
77452;BME280;66537;52.370;4.832;2023-09-30T02:31:51;102577.66;;;12.76;100.00
77452;BME280;66537;52.370;4.832;2023-09-30T02:34:16;102569.91;;;12.73;100.00
77452;BME280;66537;52.370;4.832;2023-09-30T02:36:41;102570.78;;;12.73;100.00
77452;BME280;66537;52.370;4.832;2023-09-30T02:39:07;102570.78;;;12.70;100.00
77452;BME280;66537;52.370;4.832;2023-09-30T02:41:34;102571.63;;;12.74;100.00
77452;BME280;66537;52.370;4.832;2023-09-30T02:44:00;102576.75;;;12.80;100.00
77452;BME280;66537;52.370;4.832;2023-09-30T02:46:25;102567.13;;;12.88;100.00
77452;BME280;66537;52.370;4.832;2023-09-30T02:48:53;102569.72;;;12.91;100.00
77452;BME280;66537;52.370;4.832;2023-09-30T02:51:18;102573.25;;;12.85;100.00
77452;BME280;66537;52.370;4.832;2023-09-30T02:53:44;102569.63;;;12.98;100.00
77452;BME280;66537;52.370;4.832;2023-09-30T02:56:09;102576.50;;;13.01;100.00
77452;BME280;66537;52.370;4.832;2023-09-30T02:58:35;102575.75;;;12.91;100.00
77452;BME280;66537;52.370;4.832;2023-09-30T03:01:01;102573.22;;;12.87;100.00
77452;BME280;66537;52.370;4.832;2023-09-30T03:03:26;102574.88;;;12.94;100.00
77452;BME280;66537;52.370;4.832;2023-09-30T03:05:53;102578.28;;;12.97;100.00
77452;BME280;66537;52.370;4.832;2023-09-30T03:08:19;102579.13;;;13.02;100.00
77452;BME280;66537;52.370;4.832;2023-09-30T03:10:45;102582.59;;;13.00;100.00
77452;BME280;66537;52.370;4.832;2023-09-30T03:13:11;102570.50;;;12.97;100.00
77452;BME280;66537;52.370;4.832;2023-09-30T03:15:36;102568.72;;;13.04;100.00
77452;BME280;66537;52.370;4.832;2023-09-30T03:18:04;102565.25;;;13.06;100.00
77452;BME280;66537;52.370;4.832;2023-09-30T03:20:29;102564.38;;;13.06;100.00
77452;BME280;66537;52.370;4.832;2023-09-30T03:22:56;102566.03;;;13.11;100.00
77452;BME280;66537;52.370;4.832;2023-09-30T03:25:22;102558.25;;;13.11;100.00
77452;BME280;66537;52.370;4.832;2023-09-30T03:27:48;102563.47;;;13.10;100.00
77452;BME280;66537;52.370;4.832;2023-09-30T03:30:15;102566.09;;;13.08;100.00
77452;BME280;66537;52.370;4.832;2023-09-30T03:32:41;102564.25;;;13.15;100.00
77452;BME280;66537;52.370;4.832;2023-09-30T03:35:08;102557.31;;;13.17;100.00
77452;BME280;66537;52.370;4.832;2023-09-30T03:37:36;102560.78;;;13.17;100.00
77452;BME280;66537;52.370;4.832;2023-09-30T03:40:03;102567.66;;;13.21;100.00
77452;BME280;66537;52.370;4.832;2023-09-30T03:42:39;102564.34;;;13.07;100.00
77452;BME280;66537;52.370;4.832;2023-09-30T03:45:05;102557.34;;;13.14;100.00
77452;BME280;66537;52.370;4.832;2023-09-30T03:47:38;102552.97;;;13.17;100.00
77452;BME280;66537;52.370;4.832;2023-09-30T03:50:04;102561.63;;;13.16;100.00
77452;BME280;66537;52.370;4.832;2023-09-30T03:52:31;102563.50;;;13.05;100.00
77452;BME280;66537;52.370;4.832;2023-09-30T03:55:01;102560.09;;;12.99;100.00
77452;BME280;66537;52.370;4.832;2023-09-30T03:57:31;102563.47;;;13.10;100.00
77452;BME280;66537;52.370;4.832;2023-09-30T03:59:57;102566.84;;;13.16;100.00
77452;BME280;66537;52.370;4.832;2023-09-30T04:02:22;102563.41;;;13.16;100.00
77452;BME280;66537;52.370;4.832;2023-09-30T04:04:47;102561.63;;;13.19;100.00
77452;BME280;66537;52.370;4.832;2023-09-30T04:07:16;102565.94;;;13.19;100.00
77452;BME280;66537;52.370;4.832;2023-09-30T04:09:42;102557.97;;;13.32;100.00
77452;BME280;66537;52.370;4.832;2023-09-30T04:12:07;102564.81;;;13.41;100.00
77452;BME280;66537;52.370;4.832;2023-09-30T04:14:33;102563.81;;;13.49;100.00
77452;BME280;66537;52.370;4.832;2023-09-30T04:16:58;102575.88;;;13.55;100.00
77452;BME280;66537;52.370;4.832;2023-09-30T04:19:23;102577.63;;;13.54;100.00
77452;BME280;66537;52.370;4.832;2023-09-30T04:21:48;102581.94;;;13.55;100.00
77452;BME280;66537;52.370;4.832;2023-09-30T04:24:14;102580.22;;;13.56;100.00
77452;BME280;66537;52.370;4.832;2023-09-30T04:26:39;102583.56;;;13.64;100.00
77452;BME280;66537;52.370;4.832;2023-09-30T04:29:06;102580.97;;;13.64;100.00
77452;BME280;66537;52.370;4.832;2023-09-30T04:31:37;102575.78;;;13.63;100.00
77452;BME280;66537;52.370;4.832;2023-09-30T04:34:04;102585.44;;;13.53;100.00
77452;BME280;66537;52.370;4.832;2023-09-30T04:36:30;102591.44;;;13.58;100.00
77452;BME280;66537;52.370;4.832;2023-09-30T04:38:56;102585.63;;;13.41;100.00
77452;BME280;66537;52.370;4.832;2023-09-30T04:41:21;102581.22;;;13.44;100.00
77452;BME280;66537;52.370;4.832;2023-09-30T04:43:46;102593.34;;;13.45;100.00
77452;BME280;66537;52.370;4.832;2023-09-30T04:46:13;102602.09;;;13.38;100.00
77452;BME280;66537;52.370;4.832;2023-09-30T04:48:38;102609.03;;;13.38;100.00
77452;BME280;66537;52.370;4.832;2023-09-30T04:51:07;102607.28;;;13.40;100.00
77452;BME280;66537;52.370;4.832;2023-09-30T04:53:33;102610.94;;;13.25;100.00
77452;BME280;66537;52.370;4.832;2023-09-30T04:55:59;102611.03;;;13.18;100.00
77452;BME280;66537;52.370;4.832;2023-09-30T04:58:24;102600.72;;;13.10;100.00
77452;BME280;66537;52.370;4.832;2023-09-30T05:00:50;102610.03;;;13.26;100.00
77452;BME280;66537;52.370;4.832;2023-09-30T05:03:15;102610.03;;;13.29;100.00
77452;BME280;66537;52.370;4.832;2023-09-30T05:05:41;102606.50;;;13.32;100.00
77452;BME280;66537;52.370;4.832;2023-09-30T05:08:06;102600.53;;;13.25;100.00
77452;BME280;66537;52.370;4.832;2023-09-30T05:10:32;102594.53;;;13.22;100.00
77452;BME280;66537;52.370;4.832;2023-09-30T05:12:58;102591.97;;;13.17;100.00
77452;BME280;66537;52.370;4.832;2023-09-30T05:15:23;102598.00;;;13.19;100.00
77452;BME280;66537;52.370;4.832;2023-09-30T05:17:49;102597.09;;;13.20;100.00
77452;BME280;66537;52.370;4.832;2023-09-30T05:20:15;102599.72;;;13.20;100.00
77452;BME280;66537;52.370;4.832;2023-09-30T05:22:42;102598.91;;;13.15;100.00
77452;BME280;66537;52.370;4.832;2023-09-30T05:25:11;102598.94;;;13.14;100.00
77452;BME280;66537;52.370;4.832;2023-09-30T05:27:37;102599.03;;;13.06;100.00
77452;BME280;66537;52.370;4.832;2023-09-30T05:30:04;102606.84;;;13.03;100.00
77452;BME280;66537;52.370;4.832;2023-09-30T05:32:31;102607.69;;;13.02;100.00
77452;BME280;66537;52.370;4.832;2023-09-30T05:34:56;102605.09;;;13.01;100.00
77452;BME280;66537;52.370;4.832;2023-09-30T05:37:24;102607.75;;;12.96;100.00
77452;BME280;66537;52.370;4.832;2023-09-30T05:39:50;102609.47;;;12.97;100.00
77452;BME280;66537;52.370;4.832;2023-09-30T05:42:16;102609.53;;;12.91;100.00
77452;BME280;66537;52.370;4.832;2023-09-30T05:44:42;102604.41;;;12.87;100.00
77452;BME280;66537;52.370;4.832;2023-09-30T05:47:08;102609.53;;;12.90;100.00
77452;BME280;66537;52.370;4.832;2023-09-30T05:49:34;102604.34;;;12.93;100.00
77452;BME280;66537;52.370;4.832;2023-09-30T05:52:03;102611.28;;;12.89;100.00
77452;BME280;66537;52.370;4.832;2023-09-30T05:54:29;102611.31;;;12.86;100.00
77452;BME280;66537;52.370;4.832;2023-09-30T05:56:55;102619.97;;;12.87;100.00
77452;BME280;66537;52.370;4.832;2023-09-30T05:59:21;102622.59;;;12.82;100.00
77452;BME280;66537;52.370;4.832;2023-09-30T06:01:46;102620.00;;;12.85;100.00
77452;BME280;66537;52.370;4.832;2023-09-30T06:04:12;102623.38;;;12.92;100.00
77452;BME280;66537;52.370;4.832;2023-09-30T06:06:37;102619.91;;;12.93;100.00
77452;BME280;66537;52.370;4.832;2023-09-30T06:09:04;102613.81;;;12.97;100.00
77452;BME280;66537;52.370;4.832;2023-09-30T06:11:33;102612.88;;;13.01;100.00
77452;BME280;66537;52.370;4.832;2023-09-30T06:13:59;102623.28;;;13.01;100.00
77452;BME280;66537;52.370;4.832;2023-09-30T06:16:26;102619.81;;;13.06;100.00
77452;BME280;66537;52.370;4.832;2023-09-30T06:18:56;102617.22;;;13.06;100.00
77452;BME280;66537;52.370;4.832;2023-09-30T06:21:23;102620.66;;;13.08;100.00
77452;BME280;66537;52.370;4.832;2023-09-30T06:23:49;102618.03;;;13.10;100.00
77452;BME280;66537;52.370;4.832;2023-09-30T06:26:17;102628.44;;;13.10;100.00
77452;BME280;66537;52.370;4.832;2023-09-30T06:28:43;102631.91;;;13.10;100.00
77452;BME280;66537;52.370;4.832;2023-09-30T06:31:10;102637.94;;;13.12;100.00
77452;BME280;66537;52.370;4.832;2023-09-30T06:33:37;102643.94;;;13.14;100.00
77452;BME280;66537;52.370;4.832;2023-09-30T06:36:12;102636.22;;;13.10;100.00
77452;BME280;66537;52.370;4.832;2023-09-30T06:38:42;102649.09;;;13.19;100.00
77452;BME280;66537;52.370;4.832;2023-09-30T06:41:17;102641.22;;;13.26;100.00
77452;BME280;66537;52.370;4.832;2023-09-30T06:43:43;102646.34;;;13.34;100.00
77452;BME280;66537;52.370;4.832;2023-09-30T06:46:09;102653.19;;;13.42;100.00
77452;BME280;66537;52.370;4.832;2023-09-30T06:48:36;102660.84;;;13.51;100.00
77452;BME280;66537;52.370;4.832;2023-09-30T06:51:02;102670.34;;;13.58;100.00
77452;BME280;66537;52.370;4.832;2023-09-30T06:53:27;102668.47;;;13.67;100.00
77452;BME280;66537;52.370;4.832;2023-09-30T06:55:53;102664.94;;;13.71;100.00
77452;BME280;66537;52.370;4.832;2023-09-30T06:58:18;102669.19;;;13.79;100.00
77452;BME280;66537;52.370;4.832;2023-09-30T07:00:47;102678.72;;;13.82;100.00
77452;BME280;66537;52.370;4.832;2023-09-30T07:03:16;102679.53;;;13.82;100.00
77452;BME280;66537;52.370;4.832;2023-09-30T07:05:42;102676.75;;;13.99;100.00
77452;BME280;66537;52.370;4.832;2023-09-30T07:08:09;102683.53;;;14.09;100.00
77452;BME280;66537;52.370;4.832;2023-09-30T07:10:38;102688.66;;;14.13;100.00
77452;BME280;66537;52.370;4.832;2023-09-30T07:13:04;102681.75;;;14.12;100.00
77452;BME280;66537;52.370;4.832;2023-09-30T07:15:32;102683.47;;;14.13;100.00
77452;BME280;66537;52.370;4.832;2023-09-30T07:17:57;102688.44;;;14.31;100.00
77452;BME280;66537;52.370;4.832;2023-09-30T07:20:23;102691.91;;;14.30;100.00
77452;BME280;66537;52.370;4.832;2023-09-30T07:22:50;102697.06;;;14.35;100.00
77452;BME280;66537;52.370;4.832;2023-09-30T07:25:16;102690.88;;;14.43;100.00
77452;BME280;66537;52.370;4.832;2023-09-30T07:27:45;102682.94;;;14.51;100.00
77452;BME280;66537;52.370;4.832;2023-09-30T07:30:12;102687.94;;;14.65;100.00
77452;BME280;66537;52.370;4.832;2023-09-30T07:32:42;102691.34;;;14.68;100.00
77452;BME280;66537;52.370;4.832;2023-09-30T07:35:08;102693.88;;;14.73;100.00
77452;BME280;66537;52.370;4.832;2023-09-30T07:37:33;102703.97;;;14.91;100.00
77452;BME280;66537;52.370;4.832;2023-09-30T07:39:58;102705.56;;;14.99;100.00
77452;BME280;66537;52.370;4.832;2023-09-30T07:42:24;102716.72;;;15.07;100.00
77452;BME280;66537;52.370;4.832;2023-09-30T07:44:50;102719.09;;;15.21;100.00
77452;BME280;66537;52.370;4.832;2023-09-30T07:47:15;102708.56;;;15.27;100.00
77452;BME280;66537;52.370;4.832;2023-09-30T07:49:41;102708.06;;;15.53;100.00
77452;BME280;66537;52.370;4.832;2023-09-30T07:52:06;102709.41;;;15.73;100.00
77452;BME280;66537;52.370;4.832;2023-09-30T07:54:32;102699.44;;;15.92;100.00
77452;BME280;66537;52.370;4.832;2023-09-30T07:56:58;102694.81;;;16.79;100.00
77452;BME280;66537;52.370;4.832;2023-09-30T07:59:24;102687.72;;;17.79;100.00
77452;BME280;66537;52.370;4.832;2023-09-30T08:01:50;102684.41;;;18.83;100.00
77452;BME280;66537;52.370;4.832;2023-09-30T08:04:15;102682.69;;;20.03;100.00
77452;BME280;66537;52.370;4.832;2023-09-30T08:06:40;102680.53;;;21.19;99.02
77452;BME280;66537;52.370;4.832;2023-09-30T08:09:05;102672.34;;;21.64;89.77
77452;BME280;66537;52.370;4.832;2023-09-30T08:11:36;102662.41;;;22.43;87.62
77452;BME280;66537;52.370;4.832;2023-09-30T08:14:03;102665.56;;;22.85;84.64
77452;BME280;66537;52.370;4.832;2023-09-30T08:16:38;102670.91;;;23.51;78.32
77452;BME280;66537;52.370;4.832;2023-09-30T08:19:04;102677.25;;;23.79;75.95
77452;BME280;66537;52.370;4.832;2023-09-30T08:21:30;102684.84;;;23.85;72.27
77452;BME280;66537;52.370;4.832;2023-09-30T08:23:56;102681.31;;;24.02;72.04
77452;BME280;66537;52.370;4.832;2023-09-30T08:26:22;102685.06;;;23.50;72.38
77452;BME280;66537;52.370;4.832;2023-09-30T08:28:47;102687.94;;;24.09;71.53
77452;BME280;66537;52.370;4.832;2023-09-30T08:31:13;102690.38;;;24.43;70.66
77452;BME280;66537;52.370;4.832;2023-09-30T08:33:39;102691.25;;;24.28;69.75
77452;BME280;66537;52.370;4.832;2023-09-30T08:36:06;102688.88;;;24.24;70.27
77452;BME280;66537;52.370;4.832;2023-09-30T08:38:36;102699.91;;;23.68;71.29
77452;BME280;66537;52.370;4.832;2023-09-30T08:41:03;102686.22;;;24.24;70.25
77452;BME280;66537;52.370;4.832;2023-09-30T08:43:29;102696.16;;;24.65;67.43
77452;BME280;66537;52.370;4.832;2023-09-30T08:45:58;102691.44;;;24.41;67.19
77452;BME280;66537;52.370;4.832;2023-09-30T08:48:27;102698.28;;;25.04;65.98
77452;BME280;66537;52.370;4.832;2023-09-30T08:50:53;102689.25;;;24.47;65.76
77452;BME280;66537;52.370;4.832;2023-09-30T08:53:23;102694.00;;;24.27;65.84
77452;BME280;66537;52.370;4.832;2023-09-30T08:55:52;102691.69;;;24.36;67.44
77452;BME280;66537;52.370;4.832;2023-09-30T08:58:19;102706.28;;;24.28;66.55
77452;BME280;66537;52.370;4.832;2023-09-30T09:00:45;102716.13;;;24.71;66.11
77452;BME280;66537;52.370;4.832;2023-09-30T09:03:11;102729.09;;;25.05;63.53
77452;BME280;66537;52.370;4.832;2023-09-30T09:05:36;102723.78;;;25.05;62.98
77452;BME280;66537;52.370;4.832;2023-09-30T09:08:02;102728.91;;;25.66;61.19
77452;BME280;66537;52.370;4.832;2023-09-30T09:10:27;102734.19;;;25.94;63.09
77452;BME280;66537;52.370;4.832;2023-09-30T09:12:58;102732.38;;;25.94;58.18
77452;BME280;66537;52.370;4.832;2023-09-30T09:15:28;102745.28;;;26.15;58.90
77452;BME280;66537;52.370;4.832;2023-09-30T09:17:56;102763.38;;;25.66;58.36
77452;BME280;66537;52.370;4.832;2023-09-30T09:20:24;102760.50;;;24.97;60.26
77452;BME280;66537;52.370;4.832;2023-09-30T09:22:54;102758.72;;;25.69;60.31
77452;BME280;66537;52.370;4.832;2023-09-30T09:25:24;102747.09;;;25.72;60.73
77452;BME280;66537;52.370;4.832;2023-09-30T09:27:52;102757.97;;;25.81;60.89
77452;BME280;66537;52.370;4.832;2023-09-30T09:33:01;102758.34;;;25.61;62.90
77452;BME280;66537;52.370;4.832;2023-09-30T09:35:28;102761.31;;;26.40;58.83
77452;BME280;66537;52.370;4.832;2023-09-30T09:38:06;102768.09;;;23.94;60.01
77452;BME280;66537;52.370;4.832;2023-09-30T09:40:36;102772.47;;;23.28;64.22
77452;BME280;66537;52.370;4.832;2023-09-30T09:43:03;102766.97;;;22.07;67.77
77452;BME280;66537;52.370;4.832;2023-09-30T09:45:32;102764.31;;;21.88;69.97
77452;BME280;66537;52.370;4.832;2023-09-30T09:47:58;102763.34;;;21.50;71.67
77452;BME280;66537;52.370;4.832;2023-09-30T09:50:24;102768.19;;;21.81;72.65
77452;BME280;66537;52.370;4.832;2023-09-30T09:52:53;102772.44;;;22.94;69.41
77452;BME280;66537;52.370;4.832;2023-09-30T09:55:21;102773.47;;;22.37;70.02
77452;BME280;66537;52.370;4.832;2023-09-30T09:57:47;102766.50;;;21.79;70.15
77452;BME280;66537;52.370;4.832;2023-09-30T10:00:25;102761.66;;;22.08;72.70
77452;BME280;66537;52.370;4.832;2023-09-30T10:02:50;102743.00;;;22.84;68.17
77452;BME280;66537;52.370;4.832;2023-09-30T10:05:19;102747.31;;;23.71;64.82
77452;BME280;66537;52.370;4.832;2023-09-30T10:07:50;102736.28;;;23.95;62.87
77452;BME280;66537;52.370;4.832;2023-09-30T10:10:18;102739.06;;;24.86;60.74
77452;BME280;66537;52.370;4.832;2023-09-30T10:12:44;102735.03;;;24.94;58.35
77452;BME280;66537;52.370;4.832;2023-09-30T10:20:28;102740.16;;;22.89;66.36
77452;BME280;66537;52.370;4.832;2023-09-30T10:25:49;102729.50;;;23.74;62.27
77452;BME280;66537;52.370;4.832;2023-09-30T10:28:33;102723.91;;;23.80;61.17
77452;BME280;66537;52.370;4.832;2023-09-30T10:31:11;102727.47;;;22.61;63.80
77452;BME280;66537;52.370;4.832;2023-09-30T10:36:38;102724.34;;;21.40;73.13
77452;BME280;66537;52.370;4.832;2023-09-30T10:39:05;102715.38;;;20.62;73.45
77452;BME280;66537;52.370;4.832;2023-09-30T10:47:34;102732.41;;;19.86;68.75
77452;BME280;66537;52.370;4.832;2023-09-30T10:49:49;102733.22;;;19.88;68.78
77452;BME280;66537;52.370;4.832;2023-09-30T10:52:22;102729.84;;;19.36;71.35
77452;BME280;66537;52.370;4.832;2023-09-30T10:54:48;102733.50;;;19.31;74.39
77452;BME280;66537;52.370;4.832;2023-09-30T10:57:26;102727.06;;;19.41;74.46
77452;BME280;66537;52.370;4.832;2023-09-30T11:00:10;102727.25;;;19.09;75.19
77452;BME280;66537;52.370;4.832;2023-09-30T11:02:47;102731.50;;;19.13;75.91
77452;BME280;66537;52.370;4.832;2023-09-30T11:05:13;102732.56;;;19.07;77.12
77452;BME280;66537;52.370;4.832;2023-09-30T11:07:39;102731.94;;;18.74;77.15
77452;BME280;66537;52.370;4.832;2023-09-30T11:10:05;102727.28;;;18.82;78.80
77452;BME280;66537;52.370;4.832;2023-09-30T11:12:31;102723.41;;;18.94;76.74
77452;BME280;66537;52.370;4.832;2023-09-30T11:15:04;102713.03;;;18.91;77.72
77452;BME280;66537;52.370;4.832;2023-09-30T11:17:29;102702.16;;;19.02;75.15
77452;BME280;66537;52.370;4.832;2023-09-30T11:19:55;102710.03;;;19.02;74.30
77452;BME280;66537;52.370;4.832;2023-09-30T11:22:20;102708.97;;;19.07;74.80
77452;BME280;66537;52.370;4.832;2023-09-30T11:24:46;102703.31;;;19.90;73.70
77452;BME280;66537;52.370;4.832;2023-09-30T11:27:12;102707.84;;;20.95;68.10
77452;BME280;66537;52.370;4.832;2023-09-30T11:29:48;102702.31;;;21.81;62.68
77452;BME280;66537;52.370;4.832;2023-09-30T11:32:26;102700.66;;;22.16;59.32
77452;BME280;66537;52.370;4.832;2023-09-30T11:34:52;102705.44;;;22.08;61.17
77452;BME280;66537;52.370;4.832;2023-09-30T11:37:18;102709.97;;;22.23;61.05
77452;BME280;66537;52.370;4.832;2023-09-30T11:39:44;102715.00;;;22.10;60.28
77452;BME280;66537;52.370;4.832;2023-09-30T11:42:17;102706.97;;;21.75;58.40
77452;BME280;66537;52.370;4.832;2023-09-30T11:44:45;102708.09;;;21.30;60.07
77452;BME280;66537;52.370;4.832;2023-09-30T11:47:12;102713.84;;;20.98;60.20
77452;BME280;66537;52.370;4.832;2023-09-30T11:49:39;102713.38;;;20.89;61.67
77452;BME280;66537;52.370;4.832;2023-09-30T11:52:08;102721.34;;;20.87;62.49
77452;BME280;66537;52.370;4.832;2023-09-30T11:54:42;102703.84;;;20.86;62.86
77452;BME280;66537;52.370;4.832;2023-09-30T11:57:14;102694.63;;;20.76;61.80
77452;BME280;66537;52.370;4.832;2023-09-30T11:59:40;102683.59;;;20.25;63.46
77452;BME280;66537;52.370;4.832;2023-09-30T12:02:07;102698.31;;;20.07;66.69
77452;BME280;66537;52.370;4.832;2023-09-30T12:04:37;102694.34;;;19.96;67.43
77452;BME280;66537;52.370;4.832;2023-09-30T12:07:02;102691.84;;;19.69;67.76
77452;BME280;66537;52.370;4.832;2023-09-30T12:09:27;102697.25;;;19.66;70.47
77452;BME280;66537;52.370;4.832;2023-09-30T12:11:54;102692.88;;;19.65;70.23
77452;BME280;66537;52.370;4.832;2023-09-30T12:14:20;102684.22;;;19.63;70.76
77452;BME280;66537;52.370;4.832;2023-09-30T12:16:47;102680.16;;;19.55;70.33
77452;BME280;66537;52.370;4.832;2023-09-30T12:19:16;102681.13;;;19.75;71.05
77452;BME280;66537;52.370;4.832;2023-09-30T12:21:43;102684.22;;;19.63;71.24
77452;BME280;66537;52.370;4.832;2023-09-30T12:24:12;102682.22;;;19.70;73.59
77452;BME280;66537;52.370;4.832;2023-09-30T12:26:42;102688.03;;;19.55;73.01
77452;BME280;66537;52.370;4.832;2023-09-30T12:29:07;102688.66;;;19.61;72.30
77452;BME280;66537;52.370;4.832;2023-09-30T12:31:34;102685.72;;;19.21;72.12
77452;BME280;66537;52.370;4.832;2023-09-30T12:33:59;102686.22;;;19.08;74.19
77452;BME280;66537;52.370;4.832;2023-09-30T12:36:25;102681.91;;;18.80;75.58
77452;BME280;66537;52.370;4.832;2023-09-30T12:38:50;102685.34;;;18.82;74.77
77452;BME280;66537;52.370;4.832;2023-09-30T12:41:15;102689.66;;;18.83;76.43
77452;BME280;66537;52.370;4.832;2023-09-30T12:43:41;102683.88;;;18.74;76.45
77452;BME280;66537;52.370;4.832;2023-09-30T12:46:08;102685.88;;;18.92;77.67
77452;BME280;66537;52.370;4.832;2023-09-30T12:48:34;102685.75;;;18.95;78.34
77452;BME280;66537;52.370;4.832;2023-09-30T12:50:59;102677.75;;;19.00;78.40
77452;BME280;66537;52.370;4.832;2023-09-30T12:53:25;102678.47;;;19.05;78.88
77452;BME280;66537;52.370;4.832;2023-09-30T12:55:50;102674.44;;;19.19;76.32
77452;BME280;66537;52.370;4.832;2023-09-30T12:58:16;102675.31;;;19.18;76.77
77452;BME280;66537;52.370;4.832;2023-09-30T13:00:41;102665.72;;;19.43;77.04